Time,TemperatureF,DewpointF,PressureIn,WindDirection,WindDirectionDegrees,WindSpeedMPH,WindSpeedGustMPH,Humidity,HourlyPrecipIn,Conditions,Clouds,dailyrainin,SoftwareType,DateUTC
2013-07-03 00:00:00,78.8,63.3,29.90,ESE,113,1.0,-999.0,59,0.00,,,0.00,Wunderground v.1.15,2013-07-03 07:00:00,
2013-07-03 00:05:00,78.8,63.3,29.90,ESE,113,1.0,-999.0,59,0.00,,,0.00,Wunderground v.1.15,2013-07-03 07:05:00,
2013-07-03 00:10:00,78.8,63.3,29.90,ESE,113,1.0,-999.0,59,0.00,,,0.00,Wunderground v.1.15,2013-07-03 07:10:00,
2013-07-03 00:15:00,78.4,63.4,29.90,SE,135,2.0,-999.0,60,0.00,,,0.00,Wunderground v.1.15,2013-07-03 07:15:00,
2013-07-03 00:20:00,78.4,63.4,29.90,SE,135,2.0,-999.0,60,0.00,,,0.00,Wunderground v.1.15,2013-07-03 07:20:00,
2013-07-03 00:25:00,78.0,63.9,29.89,SE,135,2.0,-999.0,62,0.00,,,0.00,Wunderground v.1.15,2013-07-03 07:25:00,
2013-07-03 00:30:00,78.0,63.9,29.89,SE,135,2.0,-999.0,62,0.00,,,0.00,Wunderground v.1.15,2013-07-03 07:30:00,
2013-07-03 00:35:00,78.3,64.2,29.89,East,90,1.0,-999.0,62,0.00,,,0.00,Wunderground v.1.15,2013-07-03 07:35:00,
2013-07-03 00:40:00,78.3,64.2,29.89,East,90,1.0,-999.0,62,0.00,,,0.00,Wunderground v.1.15,2013-07-03 07:40:00,
2013-07-03 00:45:00,77.4,67.3,29.88,East,90,1.0,-999.0,71,0.00,,,0.00,Wunderground v.1.15,2013-07-03 07:45:00,
2013-07-03 00:50:00,77.4,67.3,29.88,East,90,1.0,-999.0,71,0.00,,,0.00,Wunderground v.1.15,2013-07-03 07:50:00,
2013-07-03 00:55:00,75.6,65.5,29.89,East,90,0.0,-999.0,71,0.00,,,0.00,Wunderground v.1.15,2013-07-03 07:55:00,
2013-07-03 01:00:00,75.6,65.5,29.89,East,90,0.0,-999.0,71,0.00,,,0.00,Wunderground v.1.15,2013-07-03 08:00:00,
2013-07-03 01:05:00,75.3,60.9,29.90,ENE,68,1.0,-999.0,61,0.00,,,0.00,Wunderground v.1.15,2013-07-03 08:05:00,
2013-07-03 01:10:00,75.3,60.9,29.90,ENE,68,1.0,-999.0,61,0.00,,,0.00,Wunderground v.1.15,2013-07-03 08:10:00,
2013-07-03 01:15:00,75.8,61.8,29.90,North,0,1.0,-999.0,62,0.00,,,0.00,Wunderground v.1.15,2013-07-03 08:15:00,
2013-07-03 01:20:00,75.8,61.8,29.90,North,0,1.0,-999.0,62,0.00,,,0.00,Wunderground v.1.15,2013-07-03 08:20:00,
2013-07-03 01:25:00,75.7,61.8,29.90,NNW,338,0.0,-999.0,62,0.00,,,0.00,Wunderground v.1.15,2013-07-03 08:25:00,
2013-07-03 01:30:00,75.7,61.8,29.90,NNW,338,0.0,-999.0,62,0.00,,,0.00,Wunderground v.1.15,2013-07-03 08:30:00,
2013-07-03 01:35:00,75.1,63.4,29.90,NNW,338,0.0,-999.0,67,0.00,,,0.00,Wunderground v.1.15,2013-07-03 08:35:00,
2013-07-03 01:40:00,75.1,63.4,29.90,NNW,338,0.0,-999.0,67,0.00,,,0.00,Wunderground v.1.15,2013-07-03 08:40:00,
2013-07-03 01:45:00,73.9,61.0,29.90,NNW,338,1.0,-999.0,64,0.00,,,0.00,Wunderground v.1.15,2013-07-03 08:45:00,
2013-07-03 01:50:00,73.9,61.0,29.90,NNW,338,1.0,-999.0,64,0.00,,,0.00,Wunderground v.1.15,2013-07-03 08:50:00,
2013-07-03 01:55:00,73.7,56.0,29.89,NNW,338,0.0,-999.0,54,0.00,,,0.00,Wunderground v.1.15,2013-07-03 08:55:00,
2013-07-03 02:00:00,73.7,56.0,29.89,NNW,338,0.0,-999.0,54,0.00,,,0.00,Wunderground v.1.15,2013-07-03 09:00:00,
2013-07-03 02:05:00,75.6,57.3,29.89,NNW,338,1.0,-999.0,53,0.00,,,0.00,Wunderground v.1.15,2013-07-03 09:05:00,
2013-07-03 02:10:00,75.6,57.3,29.89,NNW,338,1.0,-999.0,53,0.00,,,0.00,Wunderground v.1.15,2013-07-03 09:10:00,
2013-07-03 02:15:00,76.5,56.5,29.89,NNW,338,0.0,-999.0,50,0.00,,,0.00,Wunderground v.1.15,2013-07-03 09:15:00,
2013-07-03 02:20:00,76.5,56.5,29.89,NNW,338,0.0,-999.0,50,0.00,,,0.00,Wunderground v.1.15,2013-07-03 09:20:00,
2013-07-03 02:25:00,77.0,56.4,29.89,NNW,338,0.0,-999.0,49,0.00,,,0.00,Wunderground v.1.15,2013-07-03 09:25:00,
2013-07-03 02:30:00,77.0,56.4,29.89,NNW,338,0.0,-999.0,49,0.00,,,0.00,Wunderground v.1.15,2013-07-03 09:30:00,
2013-07-03 02:35:00,77.6,56.9,29.89,NNW,338,0.0,-999.0,49,0.00,,,0.00,Wunderground v.1.15,2013-07-03 09:35:00,
2013-07-03 02:40:00,77.6,56.9,29.89,NNW,338,0.0,-999.0,49,0.00,,,0.00,Wunderground v.1.15,2013-07-03 09:40:00,
2013-07-03 02:45:00,77.5,61.1,29.89,NNW,338,0.0,-999.0,57,0.00,,,0.00,Wunderground v.1.15,2013-07-03 09:45:00,
2013-07-03 02:50:00,77.5,61.1,29.89,NNW,338,0.0,-999.0,57,0.00,,,0.00,Wunderground v.1.15,2013-07-03 09:50:00,
2013-07-03 02:55:00,76.1,60.2,29.88,NNW,338,1.0,-999.0,58,0.00,,,0.00,Wunderground v.1.15,2013-07-03 09:55:00,
2013-07-03 03:00:00,76.1,60.2,29.88,NNW,338,1.0,-999.0,58,0.00,,,0.00,Wunderground v.1.15,2013-07-03 10:00:00,
2013-07-03 03:05:00,74.3,59.0,29.88,NNW,338,1.0,-999.0,59,0.00,,,0.00,Wunderground v.1.15,2013-07-03 10:05:00,
2013-07-03 03:10:00,74.3,59.0,29.88,NNW,338,1.0,-999.0,59,0.00,,,0.00,Wunderground v.1.15,2013-07-03 10:10:00,
2013-07-03 03:15:00,73.9,57.7,29.88,NNW,338,0.0,-999.0,57,0.00,,,0.00,Wunderground v.1.15,2013-07-03 10:15:00,
2013-07-03 03:20:00,73.9,57.7,29.88,NNW,338,0.0,-999.0,57,0.00,,,0.00,Wunderground v.1.15,2013-07-03 10:20:00,
2013-07-03 03:25:00,74.3,58.6,29.87,NNW,338,1.0,-999.0,58,0.00,,,0.00,Wunderground v.1.15,2013-07-03 10:25:00,
2013-07-03 03:30:00,74.3,58.6,29.87,NNW,338,1.0,-999.0,58,0.00,,,0.00,Wunderground v.1.15,2013-07-03 10:30:00,
2013-07-03 03:35:00,73.6,59.8,29.88,NNW,338,1.0,-999.0,62,0.00,,,0.00,Wunderground v.1.15,2013-07-03 10:35:00,
2013-07-03 03:40:00,73.6,59.8,29.88,NNW,338,1.0,-999.0,62,0.00,,,0.00,Wunderground v.1.15,2013-07-03 10:40:00,
2013-07-03 03:45:00,72.6,59.3,29.87,NNW,338,1.0,-999.0,63,0.00,,,0.00,Wunderground v.1.15,2013-07-03 10:45:00,
2013-07-03 03:50:00,72.6,59.3,29.87,NNW,338,1.0,-999.0,63,0.00,,,0.00,Wunderground v.1.15,2013-07-03 10:50:00,
2013-07-03 03:55:00,72.5,57.4,29.88,NNW,338,1.0,-999.0,59,0.00,,,0.00,Wunderground v.1.15,2013-07-03 10:55:00,
2013-07-03 04:00:00,72.5,57.4,29.88,NNW,338,1.0,-999.0,59,0.00,,,0.00,Wunderground v.1.15,2013-07-03 11:00:00,
2013-07-03 04:05:00,72.7,57.5,29.88,NNW,338,1.0,-999.0,59,0.00,,,0.00,Wunderground v.1.15,2013-07-03 11:05:00,
2013-07-03 04:10:00,72.7,57.5,29.88,NNW,338,1.0,-999.0,59,0.00,,,0.00,Wunderground v.1.15,2013-07-03 11:10:00,
2013-07-03 04:15:00,72.6,57.0,29.88,NNW,338,1.0,-999.0,58,0.00,,,0.00,Wunderground v.1.15,2013-07-03 11:15:00,
2013-07-03 04:20:00,72.6,57.0,29.88,NNW,338,1.0,-999.0,58,0.00,,,0.00,Wunderground v.1.15,2013-07-03 11:20:00,
2013-07-03 04:25:00,73.0,57.3,29.87,NNW,338,1.0,-999.0,58,0.00,,,0.00,Wunderground v.1.15,2013-07-03 11:25:00,
2013-07-03 04:30:00,73.0,57.3,29.87,NNW,338,1.0,-999.0,58,0.00,,,0.00,Wunderground v.1.15,2013-07-03 11:30:00,
2013-07-03 04:35:00,73.6,55.9,29.87,NNW,338,0.0,-999.0,54,0.00,,,0.00,Wunderground v.1.15,2013-07-03 11:35:00,
2013-07-03 04:40:00,73.6,55.9,29.87,NNW,338,0.0,-999.0,54,0.00,,,0.00,Wunderground v.1.15,2013-07-03 11:40:00,
2013-07-03 04:45:00,74.4,55.6,29.86,NNW,338,1.0,-999.0,52,0.00,,,0.00,Wunderground v.1.15,2013-07-03 11:45:00,
2013-07-03 04:50:00,74.4,55.6,29.86,NNW,338,1.0,-999.0,52,0.00,,,0.00,Wunderground v.1.15,2013-07-03 11:50:00,
2013-07-03 04:55:00,74.8,56.5,29.86,NNW,338,1.0,-999.0,53,0.00,,,0.00,Wunderground v.1.15,2013-07-03 11:55:00,
2013-07-03 05:00:00,74.8,56.5,29.86,NNW,338,1.0,-999.0,53,0.00,,,0.00,Wunderground v.1.15,2013-07-03 12:00:00,
2013-07-03 05:05:00,75.3,52.5,29.86,North,0,0.0,-999.0,45,0.00,,,0.00,Wunderground v.1.15,2013-07-03 12:05:00,
2013-07-03 05:10:00,75.3,52.5,29.86,North,0,0.0,-999.0,45,0.00,,,0.00,Wunderground v.1.15,2013-07-03 12:10:00,
2013-07-03 05:15:00,77.0,52.1,29.86,NE,45,0.0,-999.0,42,0.00,,,0.00,Wunderground v.1.15,2013-07-03 12:15:00,
2013-07-03 05:20:00,77.0,52.1,29.86,NE,45,0.0,-999.0,42,0.00,,,0.00,Wunderground v.1.15,2013-07-03 12:20:00,
2013-07-03 05:25:00,79.4,52.3,29.86,NE,45,0.0,-999.0,39,0.00,,,0.00,Wunderground v.1.15,2013-07-03 12:25:00,
2013-07-03 05:30:00,79.4,52.3,29.86,NE,45,0.0,-999.0,39,0.00,,,0.00,Wunderground v.1.15,2013-07-03 12:30:00,
2013-07-03 05:35:00,81.0,53.0,29.86,NE,45,0.0,-999.0,38,0.00,,,0.00,Wunderground v.1.15,2013-07-03 12:35:00,
2013-07-03 05:40:00,81.0,53.0,29.86,NE,45,0.0,-999.0,38,0.00,,,0.00,Wunderground v.1.15,2013-07-03 12:40:00,
2013-07-03 05:45:00,80.8,55.6,29.87,NE,45,0.0,-999.0,42,0.00,,,0.00,Wunderground v.1.15,2013-07-03 12:45:00,
2013-07-03 05:50:00,80.8,55.6,29.87,NE,45,0.0,-999.0,42,0.00,,,0.00,Wunderground v.1.15,2013-07-03 12:50:00,
2013-07-03 05:55:00,79.7,53.2,29.87,NE,45,0.0,-999.0,40,0.00,,,0.00,Wunderground v.1.15,2013-07-03 12:55:00,
2013-07-03 06:00:00,79.7,53.2,29.87,NE,45,0.0,-999.0,40,0.00,,,0.00,Wunderground v.1.15,2013-07-03 13:00:00,
2013-07-03 06:05:00,79.9,52.0,29.87,NE,45,0.0,-999.0,38,0.00,,,0.00,Wunderground v.1.15,2013-07-03 13:05:00,
2013-07-03 06:10:00,79.9,52.0,29.87,NE,45,0.0,-999.0,38,0.00,,,0.00,Wunderground v.1.15,2013-07-03 13:10:00,
2013-07-03 06:15:00,80.8,52.8,29.87,NNE,23,0.0,-999.0,38,0.00,,,0.00,Wunderground v.1.15,2013-07-03 13:15:00,
2013-07-03 06:20:00,80.8,52.8,29.87,NNE,23,0.0,-999.0,38,0.00,,,0.00,Wunderground v.1.15,2013-07-03 13:20:00,
2013-07-03 06:25:00,80.9,54.3,29.87,NNE,23,1.0,-999.0,40,0.00,,,0.00,Wunderground v.1.15,2013-07-03 13:25:00,
2013-07-03 06:30:00,80.9,54.3,29.87,NNE,23,1.0,-999.0,40,0.00,,,0.00,Wunderground v.1.15,2013-07-03 13:30:00,
2013-07-03 06:35:00,80.7,53.4,29.87,North,0,2.0,-999.0,39,0.00,,,0.00,Wunderground v.1.15,2013-07-03 13:35:00,
2013-07-03 06:40:00,80.7,53.4,29.87,North,0,2.0,-999.0,39,0.00,,,0.00,Wunderground v.1.15,2013-07-03 13:40:00,
2013-07-03 06:45:00,82.0,54.6,29.87,North,0,1.0,-999.0,39,0.00,,,0.00,Wunderground v.1.15,2013-07-03 13:45:00,
2013-07-03 06:50:00,82.0,54.6,29.87,North,0,1.0,-999.0,39,0.00,,,0.00,Wunderground v.1.15,2013-07-03 13:50:00,
2013-07-03 06:55:00,82.5,53.6,29.87,NNE,23,2.0,-999.0,37,0.00,,,0.00,Wunderground v.1.15,2013-07-03 13:55:00,
2013-07-03 07:00:00,82.5,53.6,29.87,NNE,23,2.0,-999.0,37,0.00,,,0.00,Wunderground v.1.15,2013-07-03 14:00:00,
2013-07-03 07:05:00,83.6,54.6,29.87,North,0,1.0,-999.0,37,0.00,,,0.00,Wunderground v.1.15,2013-07-03 14:05:00,
2013-07-03 07:10:00,83.6,54.6,29.87,North,0,1.0,-999.0,37,0.00,,,0.00,Wunderground v.1.15,2013-07-03 14:10:00,
2013-07-03 07:15:00,83.6,58.1,29.87,North,0,1.0,-999.0,42,0.00,,,0.00,Wunderground v.1.15,2013-07-03 14:15:00,
2013-07-03 07:20:00,83.6,58.1,29.87,North,0,1.0,-999.0,42,0.00,,,0.00,Wunderground v.1.15,2013-07-03 14:20:00,
2013-07-03 07:25:00,82.6,57.8,29.88,NE,45,1.0,-999.0,43,0.00,,,0.00,Wunderground v.1.15,2013-07-03 14:25:00,
2013-07-03 07:30:00,82.6,57.8,29.88,NE,45,1.0,-999.0,43,0.00,,,0.00,Wunderground v.1.15,2013-07-03 14:30:00,
2013-07-03 07:35:00,81.9,55.9,29.87,NNE,23,1.0,-999.0,41,0.00,,,0.00,Wunderground v.1.15,2013-07-03 14:35:00,
2013-07-03 07:40:00,81.9,55.9,29.87,NNE,23,1.0,-999.0,41,0.00,,,0.00,Wunderground v.1.15,2013-07-03 14:40:00,
2013-07-03 07:45:00,84.0,55.7,29.88,NE,45,1.0,-999.0,38,0.00,,,0.00,Wunderground v.1.15,2013-07-03 14:45:00,
2013-07-03 07:50:00,84.0,55.7,29.88,NE,45,1.0,-999.0,38,0.00,,,0.00,Wunderground v.1.15,2013-07-03 14:50:00,
2013-07-03 07:55:00,85.6,56.3,29.88,NE,45,0.0,-999.0,37,0.00,,,0.00,Wunderground v.1.15,2013-07-03 14:55:00,
2013-07-03 08:00:00,85.6,56.3,29.88,NE,45,0.0,-999.0,37,0.00,,,0.00,Wunderground v.1.15,2013-07-03 15:00:00,
2013-07-03 08:05:00,84.9,60.6,29.88,NE,45,1.0,-999.0,44,0.00,,,0.00,Wunderground v.1.15,2013-07-03 15:05:00,
2013-07-03 08:10:00,84.9,60.6,29.88,NE,45,1.0,-999.0,44,0.00,,,0.00,Wunderground v.1.15,2013-07-03 15:10:00,
2013-07-03 08:15:00,85.1,58.8,29.87,North,0,1.0,-999.0,41,0.00,,,0.00,Wunderground v.1.15,2013-07-03 15:15:00,
2013-07-03 08:20:00,85.1,58.8,29.87,North,0,1.0,-999.0,41,0.00,,,0.00,Wunderground v.1.15,2013-07-03 15:20:00,
2013-07-03 08:25:00,84.2,62.4,29.88,North,0,1.0,-999.0,48,0.00,,,0.00,Wunderground v.1.15,2013-07-03 15:25:00,
2013-07-03 08:30:00,84.2,62.4,29.88,North,0,1.0,-999.0,48,0.00,,,0.00,Wunderground v.1.15,2013-07-03 15:30:00,
2013-07-03 08:35:00,84.9,58.6,29.87,North,0,0.0,-999.0,41,0.00,,,0.00,Wunderground v.1.15,2013-07-03 15:35:00,
2013-07-03 08:40:00,84.9,58.6,29.87,North,0,0.0,-999.0,41,0.00,,,0.00,Wunderground v.1.15,2013-07-03 15:40:00,
2013-07-03 08:45:00,87.7,63.7,29.88,North,0,0.0,-999.0,45,0.00,,,0.00,Wunderground v.1.15,2013-07-03 15:45:00,
2013-07-03 08:50:00,87.7,63.7,29.88,North,0,0.0,-999.0,45,0.00,,,0.00,Wunderground v.1.15,2013-07-03 15:50:00,
2013-07-03 08:55:00,88.0,64.0,29.88,North,0,1.0,-999.0,45,0.00,,,0.00,Wunderground v.1.15,2013-07-03 15:55:00,
2013-07-03 09:00:00,88.0,64.0,29.88,North,0,1.0,-999.0,45,0.00,,,0.00,Wunderground v.1.15,2013-07-03 16:00:00,
2013-07-03 09:05:00,87.7,63.1,29.88,North,0,0.0,-999.0,44,0.00,,,0.00,Wunderground v.1.15,2013-07-03 16:05:00,
2013-07-03 09:10:00,87.7,63.1,29.88,North,0,0.0,-999.0,44,0.00,,,0.00,Wunderground v.1.15,2013-07-03 16:10:00,
2013-07-03 09:15:00,89.0,60.1,29.88,North,0,0.0,-999.0,38,0.00,,,0.00,Wunderground v.1.15,2013-07-03 16:15:00,
2013-07-03 09:20:00,89.0,60.1,29.88,North,0,0.0,-999.0,38,0.00,,,0.00,Wunderground v.1.15,2013-07-03 16:20:00,
2013-07-03 09:25:00,90.0,58.7,29.88,North,0,0.0,-999.0,35,0.00,,,0.00,Wunderground v.1.15,2013-07-03 16:25:00,
2013-07-03 09:30:00,90.0,58.7,29.88,North,0,0.0,-999.0,35,0.00,,,0.00,Wunderground v.1.15,2013-07-03 16:30:00,
2013-07-03 09:35:00,90.7,64.5,29.88,NW,315,0.0,-999.0,42,0.00,,,0.00,Wunderground v.1.15,2013-07-03 16:35:00,
2013-07-03 09:40:00,90.7,64.5,29.88,NW,315,0.0,-999.0,42,0.00,,,0.00,Wunderground v.1.15,2013-07-03 16:40:00,
2013-07-03 10:00:00,91.8,62.6,29.87,NW,325,0.0,0.0,38,0.00,,,0.00,Wunderground v.1.15,2013-07-03 17:00:00,
2013-07-03 10:10:00,91.8,59.4,29.87,WNW,283,1.0,3.0,34,0.00,,,0.00,Wunderground v.1.15,2013-07-03 17:10:00,
2013-07-03 10:15:00,91.8,58.6,29.87,WNW,283,1.0,3.0,33,0.00,,,0.00,Wunderground v.1.15,2013-07-03 17:15:00,
2013-07-03 10:25:00,92.6,57.6,29.87,WNW,283,1.0,1.0,31,0.00,,,0.00,Wunderground v.1.15,2013-07-03 17:25:00,
2013-07-03 10:40:00,93.5,60.9,29.86,WNW,283,1.0,1.0,34,0.00,,,0.00,Wunderground v.1.15,2013-07-03 17:40:00,
2013-07-03 10:50:00,94.5,61.8,29.86,NE,47,0.0,1.0,34,0.00,,,0.00,Wunderground v.1.15,2013-07-03 17:50:00,
2013-07-03 10:55:00,94.2,59.8,29.87,NE,51,1.0,1.0,32,0.00,,,0.00,Wunderground v.1.15,2013-07-03 17:55:00,
2013-07-03 11:00:00,94.8,62.1,29.87,NE,45,1.0,1.0,34,0.00,,,0.00,Wunderground v.1.15,2013-07-03 18:00:00,
2013-07-03 11:10:00,95.1,63.1,29.86,NNE,12,1.0,1.0,35,0.00,,,0.00,Wunderground v.1.15,2013-07-03 18:10:00,
2013-07-03 11:20:00,94.6,61.0,29.86,NNW,348,1.0,1.0,33,0.00,,,0.00,Wunderground v.1.15,2013-07-03 18:20:00,
2013-07-03 11:30:00,94.6,61.0,29.86,NW,316,1.0,1.0,33,0.00,,,0.00,Wunderground v.1.15,2013-07-03 18:30:00,
2013-07-03 11:40:00,95.4,60.9,29.85,NE,50,1.0,1.0,32,0.00,,,0.00,Wunderground v.1.15,2013-07-03 18:40:00,
2013-07-03 11:45:00,95.4,61.7,29.85,ESE,123,1.0,3.0,33,0.00,,,0.00,Wunderground v.1.15,2013-07-03 18:45:00,
2013-07-03 11:50:00,95.2,62.4,29.85,SE,126,1.0,1.0,34,0.00,,,0.00,Wunderground v.1.15,2013-07-03 18:50:00,
2013-07-03 11:55:00,96.9,63.9,29.85,NNW,329,1.0,1.0,34,0.00,,,0.00,Wunderground v.1.15,2013-07-03 18:55:00,
2013-07-03 12:00:00,97.1,62.3,29.85,NNE,24,1.0,1.0,32,0.00,,,0.00,Wunderground v.1.15,2013-07-03 19:00:00,
2013-07-03 12:10:00,96.0,62.3,29.85,NE,34,1.0,2.0,33,0.00,,,0.00,Wunderground v.1.15,2013-07-03 19:10:00,
2013-07-03 12:20:00,96.9,63.0,29.85,NNW,331,1.0,3.0,33,0.00,,,0.00,Wunderground v.1.15,2013-07-03 19:20:00,
2013-07-03 12:25:00,96.8,62.1,29.85,NNE,12,1.0,3.0,32,0.00,,,0.00,Wunderground v.1.15,2013-07-03 19:25:00,
2013-07-03 12:35:00,97.5,64.4,29.85,NNE,15,1.0,2.0,34,0.00,,,0.00,Wunderground v.1.15,2013-07-03 19:35:00,
2013-07-03 12:45:00,96.7,64.5,29.85,SSW,211,2.0,4.0,35,0.00,,,0.00,Wunderground v.1.15,2013-07-03 19:45:00,
2013-07-03 12:50:00,97.1,64.1,29.84,NNE,24,1.0,1.0,34,0.00,,,0.00,Wunderground v.1.15,2013-07-03 19:50:00,
2013-07-03 13:00:00,97.7,64.6,29.84,West,261,1.0,1.0,34,0.00,,,0.00,Wunderground v.1.15,2013-07-03 20:00:00,
2013-07-03 13:05:00,98.2,64.2,29.84,North,0,1.0,-999.0,33,0.00,,,0.00,Wunderground v.1.15,2013-07-03 20:05:00,
2013-07-03 13:10:00,98.4,65.2,29.84,North,349,1.0,1.0,34,0.00,,,0.00,Wunderground v.1.15,2013-07-03 20:10:00,
2013-07-03 13:15:00,98.2,63.3,29.84,NW,324,1.0,1.0,32,0.00,,,0.00,Wunderground v.1.15,2013-07-03 20:15:00,
2013-07-03 13:20:00,98.3,64.3,29.84,ENE,68,1.0,-999.0,33,0.00,,,0.00,Wunderground v.1.15,2013-07-03 20:20:00,
2013-07-03 13:25:00,97.3,61.6,29.84,NNE,23,1.0,-999.0,31,0.00,,,0.00,Wunderground v.1.15,2013-07-03 20:25:00,
2013-07-03 13:30:00,97.3,61.6,29.84,NNE,23,1.0,-999.0,31,0.00,,,0.00,Wunderground v.1.15,2013-07-03 20:30:00,
2013-07-03 13:35:00,96.7,61.1,29.84,ENE,68,1.0,-999.0,31,0.00,,,0.00,Wunderground v.1.15,2013-07-03 20:35:00,
2013-07-03 13:40:00,96.7,61.1,29.84,ENE,68,1.0,-999.0,31,0.00,,,0.00,Wunderground v.1.15,2013-07-03 20:40:00,
2013-07-03 13:45:00,97.3,61.6,29.84,NE,45,1.0,-999.0,31,0.00,,,0.00,Wunderground v.1.15,2013-07-03 20:45:00,
2013-07-03 13:50:00,97.3,61.6,29.84,NE,45,1.0,-999.0,31,0.00,,,0.00,Wunderground v.1.15,2013-07-03 20:50:00,
2013-07-03 13:55:00,97.9,60.2,29.84,NE,45,1.0,-999.0,29,0.00,,,0.00,Wunderground v.1.15,2013-07-03 20:55:00,
2013-07-03 14:00:00,97.9,60.2,29.84,NE,45,1.0,-999.0,29,0.00,,,0.00,Wunderground v.1.15,2013-07-03 21:00:00,
2013-07-03 14:05:00,98.2,62.4,29.84,SE,135,1.0,-999.0,31,0.00,,,0.00,Wunderground v.1.15,2013-07-03 21:05:00,
2013-07-03 14:10:00,98.2,62.4,29.84,SE,135,1.0,-999.0,31,0.00,,,0.00,Wunderground v.1.15,2013-07-03 21:10:00,
2013-07-03 14:15:00,97.8,59.2,29.83,WNW,293,1.0,-999.0,28,0.00,,,0.00,Wunderground v.1.15,2013-07-03 21:15:00,
2013-07-03 14:20:00,97.8,59.2,29.83,WNW,293,1.0,-999.0,28,0.00,,,0.00,Wunderground v.1.15,2013-07-03 21:20:00,
2013-07-03 14:25:00,97.4,58.8,29.83,NNE,23,1.0,-999.0,28,0.00,,,0.00,Wunderground v.1.15,2013-07-03 21:25:00,
2013-07-03 14:30:00,97.4,58.8,29.83,NNE,23,1.0,-999.0,28,0.00,,,0.00,Wunderground v.1.15,2013-07-03 21:30:00,
2013-07-03 14:35:00,97.7,59.1,29.83,ESE,113,1.0,-999.0,28,0.00,,,0.00,Wunderground v.1.15,2013-07-03 21:35:00,
2013-07-03 14:40:00,97.7,59.1,29.83,ESE,113,1.0,-999.0,28,0.00,,,0.00,Wunderground v.1.15,2013-07-03 21:40:00,
2013-07-03 14:45:00,97.8,61.1,29.82,NE,45,1.0,-999.0,30,0.00,,,0.00,Wunderground v.1.15,2013-07-03 21:45:00,
2013-07-03 14:50:00,97.8,61.1,29.82,NE,45,1.0,-999.0,30,0.00,,,0.00,Wunderground v.1.15,2013-07-03 21:50:00,
2013-07-03 14:55:00,98.2,60.5,29.82,ENE,68,1.0,-999.0,29,0.00,,,0.00,Wunderground v.1.15,2013-07-03 21:55:00,
2013-07-03 15:00:00,98.2,60.5,29.82,ENE,68,1.0,-999.0,29,0.00,,,0.00,Wunderground v.1.15,2013-07-03 22:00:00,
2013-07-03 15:05:00,98.3,60.6,29.81,East,90,1.0,-999.0,29,0.00,,,0.00,Wunderground v.1.15,2013-07-03 22:05:00,
2013-07-03 15:10:00,98.3,60.6,29.81,East,90,1.0,-999.0,29,0.00,,,0.00,Wunderground v.1.15,2013-07-03 22:10:00,
2013-07-03 15:15:00,98.7,58.9,29.81,North,0,1.0,-999.0,27,0.00,,,0.00,Wunderground v.1.15,2013-07-03 22:15:00,
2013-07-03 15:20:00,98.7,58.9,29.81,North,0,1.0,-999.0,27,0.00,,,0.00,Wunderground v.1.15,2013-07-03 22:20:00,
2013-07-03 15:25:00,98.7,59.9,29.80,NE,45,1.0,-999.0,28,0.00,,,0.00,Wunderground v.1.15,2013-07-03 22:25:00,
2013-07-03 15:30:00,98.7,59.9,29.80,NE,45,1.0,-999.0,28,0.00,,,0.00,Wunderground v.1.15,2013-07-03 22:30:00,
2013-07-03 15:35:00,99.0,62.1,29.80,West,270,1.0,-999.0,30,0.00,,,0.00,Wunderground v.1.15,2013-07-03 22:35:00,
2013-07-03 15:40:00,99.0,62.1,29.80,West,270,1.0,-999.0,30,0.00,,,0.00,Wunderground v.1.15,2013-07-03 22:40:00,
2013-07-03 15:45:00,99.3,62.4,29.80,NNE,23,1.0,-999.0,30,0.00,,,0.00,Wunderground v.1.15,2013-07-03 22:45:00,
2013-07-03 15:50:00,99.3,62.4,29.80,NNE,23,1.0,-999.0,30,0.00,,,0.00,Wunderground v.1.15,2013-07-03 22:50:00,
2013-07-03 15:55:00,99.3,60.5,29.79,East,90,0.0,-999.0,28,0.00,,,0.00,Wunderground v.1.15,2013-07-03 22:55:00,
2013-07-03 16:00:00,99.3,60.5,29.79,East,90,0.0,-999.0,28,0.00,,,0.00,Wunderground v.1.15,2013-07-03 23:00:00,
2013-07-03 16:05:00,98.8,62.0,29.79,NNE,23,1.0,-999.0,30,0.00,,,0.00,Wunderground v.1.15,2013-07-03 23:05:00,
2013-07-03 16:10:00,98.8,62.0,29.79,NNE,23,1.0,-999.0,30,0.00,,,0.00,Wunderground v.1.15,2013-07-03 23:10:00,
2013-07-03 16:15:00,98.1,61.4,29.78,North,0,1.0,-999.0,30,0.00,,,0.00,Wunderground v.1.15,2013-07-03 23:15:00,
2013-07-03 16:20:00,98.1,61.4,29.78,North,0,1.0,-999.0,30,0.00,,,0.00,Wunderground v.1.15,2013-07-03 23:20:00,
2013-07-03 16:25:00,98.0,62.2,29.78,North,0,1.0,-999.0,31,0.00,,,0.00,Wunderground v.1.15,2013-07-03 23:25:00,
2013-07-03 16:30:00,98.0,62.2,29.78,North,0,1.0,-999.0,31,0.00,,,0.00,Wunderground v.1.15,2013-07-03 23:30:00,
2013-07-03 16:35:00,98.0,62.2,29.78,East,90,1.0,-999.0,31,0.00,,,0.00,Wunderground v.1.15,2013-07-03 23:35:00,
2013-07-03 16:40:00,98.0,62.2,29.78,East,90,1.0,-999.0,31,0.00,,,0.00,Wunderground v.1.15,2013-07-03 23:40:00,
2013-07-03 16:45:00,97.8,62.9,29.78,East,90,1.0,-999.0,32,0.00,,,0.00,Wunderground v.1.15,2013-07-03 23:45:00,
2013-07-03 16:50:00,97.8,62.9,29.78,East,90,1.0,-999.0,32,0.00,,,0.00,Wunderground v.1.15,2013-07-03 23:50:00,
2013-07-03 16:55:00,97.3,63.4,29.78,ESE,113,1.0,-999.0,33,0.00,,,0.00,Wunderground v.1.15,2013-07-03 23:55:00,
2013-07-03 17:00:00,97.3,63.4,29.78,ESE,113,1.0,-999.0,33,0.00,,,0.00,Wunderground v.1.15,2013-07-04 00:00:00,
2013-07-03 17:05:00,96.9,62.2,29.78,SE,135,1.0,-999.0,32,0.00,,,0.00,Wunderground v.1.15,2013-07-04 00:05:00,
2013-07-03 17:10:00,96.9,62.2,29.78,SE,135,1.0,-999.0,32,0.00,,,0.00,Wunderground v.1.15,2013-07-04 00:10:00,
2013-07-03 17:15:00,96.8,62.1,29.78,ESE,113,1.0,-999.0,32,0.00,,,0.00,Wunderground v.1.15,2013-07-04 00:15:00,
2013-07-03 17:20:00,96.8,62.1,29.78,ESE,113,1.0,-999.0,32,0.00,,,0.00,Wunderground v.1.15,2013-07-04 00:20:00,
2013-07-03 17:25:00,96.5,62.7,29.78,East,90,2.0,-999.0,33,0.00,,,0.00,Wunderground v.1.15,2013-07-04 00:25:00,
2013-07-03 17:30:00,96.5,62.7,29.78,East,90,2.0,-999.0,33,0.00,,,0.00,Wunderground v.1.15,2013-07-04 00:30:00,
2013-07-03 17:35:00,96.3,62.5,29.78,SE,135,1.0,-999.0,33,0.00,,,0.00,Wunderground v.1.15,2013-07-04 00:35:00,
2013-07-03 17:40:00,96.3,62.5,29.78,SE,135,1.0,-999.0,33,0.00,,,0.00,Wunderground v.1.15,2013-07-04 00:40:00,
2013-07-03 17:45:00,95.8,62.9,29.78,SE,135,1.0,-999.0,34,0.00,,,0.00,Wunderground v.1.15,2013-07-04 00:45:00,
2013-07-03 17:50:00,95.8,62.9,29.78,SE,135,1.0,-999.0,34,0.00,,,0.00,Wunderground v.1.15,2013-07-04 00:50:00,
2013-07-03 17:55:00,95.2,63.2,29.78,SE,135,1.0,-999.0,35,0.00,,,0.00,Wunderground v.1.15,2013-07-04 00:55:00,
2013-07-03 18:00:00,95.2,63.2,29.78,SE,135,1.0,-999.0,35,0.00,,,0.00,Wunderground v.1.15,2013-07-04 01:00:00,
2013-07-03 18:05:00,94.6,62.7,29.78,SE,135,1.0,-999.0,35,0.00,,,0.00,Wunderground v.1.15,2013-07-04 01:05:00,
2013-07-03 18:10:00,94.6,62.7,29.78,SE,135,1.0,-999.0,35,0.00,,,0.00,Wunderground v.1.15,2013-07-04 01:10:00,
2013-07-03 18:15:00,94.0,63.0,29.79,ESE,113,1.0,-999.0,36,0.00,,,0.00,Wunderground v.1.15,2013-07-04 01:15:00,
2013-07-03 18:20:00,94.0,63.0,29.79,ESE,113,1.0,-999.0,36,0.00,,,0.00,Wunderground v.1.15,2013-07-04 01:20:00,
2013-07-03 18:25:00,93.6,63.4,29.79,SE,135,0.0,-999.0,37,0.00,,,0.00,Wunderground v.1.15,2013-07-04 01:25:00,
2013-07-03 18:30:00,93.6,63.4,29.79,SE,135,0.0,-999.0,37,0.00,,,0.00,Wunderground v.1.15,2013-07-04 01:30:00,
2013-07-03 18:35:00,93.3,63.1,29.80,SE,135,0.0,-999.0,37,0.00,,,0.00,Wunderground v.1.15,2013-07-04 01:35:00,
2013-07-03 18:40:00,93.3,63.1,29.80,SE,135,0.0,-999.0,37,0.00,,,0.00,Wunderground v.1.15,2013-07-04 01:40:00,
2013-07-03 18:45:00,93.1,62.2,29.79,SE,135,1.0,-999.0,36,0.00,,,0.00,Wunderground v.1.15,2013-07-04 01:45:00,
2013-07-03 18:50:00,93.1,62.2,29.79,SE,135,1.0,-999.0,36,0.00,,,0.00,Wunderground v.1.15,2013-07-04 01:50:00,
2013-07-03 18:55:00,92.6,62.5,29.80,SE,135,0.0,-999.0,37,0.00,,,0.00,Wunderground v.1.15,2013-07-04 01:55:00,
2013-07-03 19:00:00,92.6,62.5,29.80,SE,135,0.0,-999.0,37,0.00,,,0.00,Wunderground v.1.15,2013-07-04 02:00:00,
2013-07-03 19:05:00,91.8,61.8,29.79,SE,135,0.0,-999.0,37,0.00,,,0.00,Wunderground v.1.15,2013-07-04 02:05:00,
2013-07-03 19:10:00,91.8,61.8,29.79,SE,135,0.0,-999.0,37,0.00,,,0.00,Wunderground v.1.15,2013-07-04 02:10:00,
2013-07-03 19:15:00,91.3,61.4,29.79,SE,135,0.0,-999.0,37,0.00,,,0.00,Wunderground v.1.15,2013-07-04 02:15:00,
2013-07-03 19:20:00,91.3,61.4,29.79,SE,135,0.0,-999.0,37,0.00,,,0.00,Wunderground v.1.15,2013-07-04 02:20:00,
2013-07-03 19:25:00,90.9,61.0,29.79,SE,135,0.0,-999.0,37,0.00,,,0.00,Wunderground v.1.15,2013-07-04 02:25:00,
2013-07-03 19:30:00,90.9,61.0,29.79,SE,135,0.0,-999.0,37,0.00,,,0.00,Wunderground v.1.15,2013-07-04 02:30:00,
2013-07-03 19:35:00,90.6,61.5,29.80,SE,135,0.0,-999.0,38,0.00,,,0.00,Wunderground v.1.15,2013-07-04 02:35:00,
2013-07-03 19:40:00,90.6,61.5,29.80,SE,135,0.0,-999.0,38,0.00,,,0.00,Wunderground v.1.15,2013-07-04 02:40:00,
2013-07-03 19:45:00,90.4,62.1,29.80,SE,135,0.0,-999.0,39,0.00,,,0.00,Wunderground v.1.15,2013-07-04 02:45:00,
2013-07-03 19:50:00,90.4,62.1,29.80,SE,135,0.0,-999.0,39,0.00,,,0.00,Wunderground v.1.15,2013-07-04 02:50:00,
2013-07-03 19:55:00,90.2,61.9,29.80,SE,135,0.0,-999.0,39,0.00,,,0.00,Wunderground v.1.15,2013-07-04 02:55:00,
2013-07-03 20:00:00,90.2,61.9,29.80,SE,135,0.0,-999.0,39,0.00,,,0.00,Wunderground v.1.15,2013-07-04 03:00:00,
2013-07-03 20:05:00,89.8,61.5,29.80,N/A,-737280,0.0,-999.0,39,0.00,,,0.00,Wunderground v.1.15,2013-07-04 03:05:00,
2013-07-03 20:10:00,89.8,61.5,29.80,N/A,-737280,0.0,-999.0,39,0.00,,,0.00,Wunderground v.1.15,2013-07-04 03:10:00,
2013-07-03 20:15:00,89.3,61.8,29.80,SE,135,0.0,-999.0,40,0.00,,,0.00,Wunderground v.1.15,2013-07-04 03:15:00,
2013-07-03 20:20:00,89.3,61.8,29.80,SE,135,0.0,-999.0,40,0.00,,,0.00,Wunderground v.1.15,2013-07-04 03:20:00,
2013-07-03 20:25:00,88.7,62.0,29.80,N/A,-737280,0.0,-999.0,41,0.00,,,0.00,Wunderground v.1.15,2013-07-04 03:25:00,
2013-07-03 20:30:00,88.7,62.0,29.80,N/A,-737280,0.0,-999.0,41,0.00,,,0.00,Wunderground v.1.15,2013-07-04 03:30:00,
2013-07-03 20:35:00,88.0,61.3,29.80,N/A,-737280,0.0,-999.0,41,0.00,,,0.00,Wunderground v.1.15,2013-07-04 03:35:00,
2013-07-03 20:40:00,88.0,61.3,29.80,N/A,-737280,0.0,-999.0,41,0.00,,,0.00,Wunderground v.1.15,2013-07-04 03:40:00,
2013-07-03 20:45:00,87.5,61.6,29.80,N/A,-737280,0.0,-999.0,42,0.00,,,0.00,Wunderground v.1.15,2013-07-04 03:45:00,
2013-07-03 20:50:00,87.5,61.6,29.80,N/A,-737280,0.0,-999.0,42,0.00,,,0.00,Wunderground v.1.15,2013-07-04 03:50:00,
2013-07-03 20:55:00,87.1,62.5,29.80,SE,135,0.0,-999.0,44,0.00,,,0.00,Wunderground v.1.15,2013-07-04 03:55:00,
2013-07-03 21:00:00,87.1,62.5,29.80,SE,135,0.0,-999.0,44,0.00,,,0.00,Wunderground v.1.15,2013-07-04 04:00:00,
2013-07-03 21:05:00,86.8,62.3,29.80,SE,135,0.0,-999.0,44,0.00,,,0.00,Wunderground v.1.15,2013-07-04 04:05:00,
2013-07-03 21:10:00,86.8,62.3,29.80,SE,135,0.0,-999.0,44,0.00,,,0.00,Wunderground v.1.15,2013-07-04 04:10:00,
2013-07-03 21:15:00,86.3,62.5,29.81,SE,135,0.0,-999.0,45,0.00,,,0.00,Wunderground v.1.15,2013-07-04 04:15:00,
2013-07-03 21:20:00,86.3,62.5,29.81,SE,135,0.0,-999.0,45,0.00,,,0.00,Wunderground v.1.15,2013-07-04 04:20:00,
2013-07-03 21:25:00,86.0,61.5,29.80,N/A,-737280,0.0,-999.0,44,0.00,,,0.00,Wunderground v.1.15,2013-07-04 04:25:00,
2013-07-03 21:30:00,86.0,61.5,29.80,N/A,-737280,0.0,-999.0,44,0.00,,,0.00,Wunderground v.1.15,2013-07-04 04:30:00,
2013-07-03 21:35:00,86.1,62.3,29.80,SE,135,0.0,-999.0,45,0.00,,,0.00,Wunderground v.1.15,2013-07-04 04:35:00,
2013-07-03 21:40:00,86.1,62.3,29.80,SE,135,0.0,-999.0,45,0.00,,,0.00,Wunderground v.1.15,2013-07-04 04:40:00,
2013-07-03 21:45:00,85.9,64.5,29.81,SE,135,0.0,-999.0,49,0.00,,,0.00,Wunderground v.1.15,2013-07-04 04:45:00,
2013-07-03 21:50:00,85.9,64.5,29.81,SE,135,0.0,-999.0,49,0.00,,,0.00,Wunderground v.1.15,2013-07-04 04:50:00,
2013-07-03 21:55:00,84.2,63.0,29.81,SE,135,0.0,-999.0,49,0.00,,,0.00,Wunderground v.1.15,2013-07-04 04:55:00,
2013-07-03 22:00:00,84.2,63.0,29.81,SE,135,0.0,-999.0,49,0.00,,,0.00,Wunderground v.1.15,2013-07-04 05:00:00,
2013-07-03 22:05:00,84.3,63.1,29.81,SE,135,0.0,-999.0,49,0.00,,,0.00,Wunderground v.1.15,2013-07-04 05:05:00,
2013-07-03 22:10:00,84.3,63.1,29.81,SE,135,0.0,-999.0,49,0.00,,,0.00,Wunderground v.1.15,2013-07-04 05:10:00,
2013-07-03 22:15:00,84.5,62.7,29.80,N/A,-737280,0.0,-999.0,48,0.00,,,0.00,Wunderground v.1.15,2013-07-04 05:15:00,
2013-07-03 22:20:00,84.5,62.7,29.80,N/A,-737280,0.0,-999.0,48,0.00,,,0.00,Wunderground v.1.15,2013-07-04 05:20:00,
2013-07-03 22:25:00,84.0,63.4,29.81,N/A,-737280,0.0,-999.0,50,0.00,,,0.00,Wunderground v.1.15,2013-07-04 05:25:00,
2013-07-03 22:30:00,84.0,63.4,29.81,N/A,-737280,0.0,-999.0,50,0.00,,,0.00,Wunderground v.1.15,2013-07-04 05:30:00,
2013-07-03 22:35:00,83.3,64.4,29.80,SE,135,0.0,-999.0,53,0.00,,,0.00,Wunderground v.1.15,2013-07-04 05:35:00,
2013-07-03 22:40:00,83.3,64.4,29.80,SE,135,0.0,-999.0,53,0.00,,,0.00,Wunderground v.1.15,2013-07-04 05:40:00,
2013-07-03 22:45:00,82.4,65.6,29.80,SE,135,0.0,-999.0,57,0.00,,,0.00,Wunderground v.1.15,2013-07-04 05:45:00,
2013-07-03 22:50:00,82.4,65.6,29.80,SE,135,0.0,-999.0,57,0.00,,,0.00,Wunderground v.1.15,2013-07-04 05:50:00,
2013-07-03 22:55:00,81.5,65.8,29.81,SE,135,1.0,-999.0,59,0.00,,,0.00,Wunderground v.1.15,2013-07-04 05:55:00,
2013-07-03 23:00:00,81.5,65.8,29.81,SE,135,1.0,-999.0,59,0.00,,,0.00,Wunderground v.1.15,2013-07-04 06:00:00,
2013-07-03 23:05:00,80.6,65.9,29.81,SE,135,0.0,-999.0,61,0.00,,,0.00,Wunderground v.1.15,2013-07-04 06:05:00,
2013-07-03 23:10:00,80.6,65.9,29.81,SE,135,0.0,-999.0,61,0.00,,,0.00,Wunderground v.1.15,2013-07-04 06:10:00,
2013-07-03 23:15:00,80.3,66.1,29.80,SE,135,1.0,-999.0,62,0.00,,,0.00,Wunderground v.1.15,2013-07-04 06:15:00,
2013-07-03 23:20:00,80.3,66.1,29.80,SE,135,1.0,-999.0,62,0.00,,,0.00,Wunderground v.1.15,2013-07-04 06:20:00,
2013-07-03 23:25:00,80.0,65.3,29.80,SE,135,1.0,-999.0,61,0.00,,,0.00,Wunderground v.1.15,2013-07-04 06:25:00,
2013-07-03 23:30:00,80.0,65.3,29.80,SE,135,1.0,-999.0,61,0.00,,,0.00,Wunderground v.1.15,2013-07-04 06:30:00,
2013-07-03 23:35:00,80.1,65.9,29.80,SSE,158,1.0,-999.0,62,0.00,,,0.00,Wunderground v.1.15,2013-07-04 06:35:00,
2013-07-03 23:40:00,80.1,65.9,29.80,SSE,158,1.0,-999.0,62,0.00,,,0.00,Wunderground v.1.15,2013-07-04 06:40:00,
2013-07-03 23:45:00,79.8,66.1,29.80,WSW,248,1.0,-999.0,63,0.00,,,0.00,Wunderground v.1.15,2013-07-04 06:45:00,
2013-07-03 23:50:00,79.8,66.1,29.80,WSW,248,1.0,-999.0,63,0.00,,,0.00,Wunderground v.1.15,2013-07-04 06:50:00,
2013-07-03 23:55:00,79.8,63.7,29.79,NNE,23,0.0,-999.0,58,0.00,,,0.00,Wunderground v.1.15,2013-07-04 06:55:00,